Terminal Aerodrome Forecast
Issued by NWS

Home | Current Version | Previous Version | Text Only | Print | Product List | Glossary On
Versions: 1 2 3 4 5 6 7 8 9 10 11 12 13 14
000
FTUS43 KIND 270520
TAFBMG
TAF
KBMG 270520Z 2706/2806 17012G18KT P6SM SHRA VCTS SCT045CB BKN090
     FM270800 19010KT P6SM SHRA SCT045 OVC050
     FM271200 21012KT P6SM VCSH OVC008
     FM271700 25011KT P6SM VCSH BKN020
     FM271800 25011KT P6SM BKN025
     FM272000 24012KT P6SM BKN040
      AMD LTD TO CLD VIS AND WIND TIL 271300=

USA.gov is the U.S. government's official web portal to all federal, state and local government web resources and services.